Time;durP1;ratioP1;P1;durP2;ratioP2;P2;SDS_P1;SDS_P2;PMS_P1;PMS_P2;Temp;Humidity;BMP_temperature;BMP_pressure;BME280_temperature;BME280_humidity;BME280_pressure;Samples;Min_cycle;Max_cycle;Signal;HPM_P1;HPM_P2
2023/07/11 00:00:53;;;;;;;1.88;1.60;;;14.20;99.90;;;;;;5076234;28;20497;-63
2023/07/11 00:03:20;;;;;;;3.95;2.22;;;14.20;99.90;;;;;;5075422;28;20043;-63
2023/07/11 00:06:09;;;;;;;2.25;2.05;;;14.20;99.90;;;;;;5075530;28;20075;-64
2023/07/11 00:08:36;;;;;;;2.45;1.63;;;14.10;99.90;;;;;;5077920;28;20071;-63
2023/07/11 00:11:07;;;;;;;2.17;1.85;;;14.10;99.90;;;;;;5074791;28;20037;-64
2023/07/11 00:13:34;;;;;;;7.13;3.08;;;14.10;99.90;;;;;;5074011;28;20040;-64
2023/07/11 00:16:10;;;;;;;4.15;1.73;;;14.00;99.90;;;;;;5075115;28;20499;-64
2023/07/11 00:18:37;;;;;;;3.95;1.75;;;14.10;99.90;;;;;;5079941;28;20052;-63
2023/07/11 00:21:04;;;;;;;2.00;1.80;;;14.00;99.90;;;;;;5075324;28;20032;-65
2023/07/11 00:23:32;;;;;;;1.98;1.88;;;14.00;99.90;;;;;;5077971;28;20044;-63
2023/07/11 00:25:59;;;;;;;1.98;1.77;;;14.00;99.90;;;;;;5079951;28;20482;-63
2023/07/11 00:28:26;;;;;;;2.80;2.40;;;14.00;99.90;;;;;;5075963;28;20391;-65
2023/07/11 00:30:54;;;;;;;4.10;2.22;;;14.00;99.90;;;;;;5061281;28;20407;-62
2023/07/11 00:33:21;;;;;;;1.65;1.55;;;13.90;99.90;;;;;;5073707;28;20474;-63
2023/07/11 00:35:53;;;;;;;1.55;1.45;;;13.90;99.90;;;;;;5076585;28;20071;-63
2023/07/11 00:38:21;;;;;;;1.70;1.60;;;13.80;99.90;;;;;;5074164;28;20072;-64
2023/07/11 00:40:50;;;;;;;3.10;1.90;;;13.80;99.90;;;;;;5075405;28;20129;-63
2023/07/11 00:43:19;;;;;;;2.25;1.90;;;13.80;99.90;;;;;;5072412;28;20052;-63
2023/07/11 00:45:49;;;;;;;2.75;2.28;;;13.70;99.90;;;;;;5049469;28;20053;-63
2023/07/11 00:48:20;;;;;;;4.55;2.28;;;13.70;99.90;;;;;;5074869;28;20138;-63
2023/07/11 00:50:47;;;;;;;2.42;2.22;;;13.70;99.90;;;;;;5066826;28;20113;-63
2023/07/11 00:53:15;;;;;;;4.13;2.35;;;13.70;99.90;;;;;;5073281;28;20047;-63
2023/07/11 00:55:43;;;;;;;2.10;1.90;;;13.70;99.90;;;;;;5075066;28;20036;-63
2023/07/11 00:58:12;;;;;;;2.33;2.20;;;13.70;99.90;;;;;;5078569;28;20676;-62
2023/07/11 01:00:39;;;;;;;2.75;2.03;;;13.60;99.90;;;;;;5074987;28;20044;-63
2023/07/11 01:03:06;;;;;;;1.77;1.67;;;13.60;99.90;;;;;;5080132;28;20036;-65
2023/07/11 01:05:38;;;;;;;2.53;2.15;;;13.60;99.90;;;;;;5073996;28;20102;-63
2023/07/11 01:08:09;;;;;;;2.20;2.00;;;13.60;99.90;;;;;;5074451;28;20056;-63
2023/07/11 01:10:36;;;;;;;2.47;2.28;;;13.60;99.90;;;;;;5073634;28;20071;-63
2023/07/11 01:13:04;;;;;;;2.20;1.70;;;13.60;99.90;;;;;;5077897;28;20131;-64
2023/07/11 01:15:31;;;;;;;2.60;1.70;;;13.60;99.90;;;;;;5058271;28;20057;-63
2023/07/11 01:17:58;;;;;;;2.28;2.08;;;13.70;99.90;;;;;;5077416;28;20035;-63
2023/07/11 01:20:25;;;;;;;1.73;1.63;;;13.70;99.90;;;;;;5075545;28;20298;-63
2023/07/11 01:22:55;;;;;;;2.33;1.92;;;13.70;99.90;;;;;;5063362;28;20051;-64
2023/07/11 01:25:23;;;;;;;2.50;2.13;;;13.70;99.90;;;;;;5071075;28;20055;-63
2023/07/11 01:27:51;;;;;;;1.58;1.48;;;13.70;99.90;;;;;;5081149;28;20052;-63
2023/07/11 01:30:20;;;;;;;3.05;2.10;;;13.70;99.90;;;;;;5054617;28;20463;-63
2023/07/11 01:32:48;;;;;;;2.42;2.22;;;13.70;99.90;;;;;;5074996;28;20060;-63
2023/07/11 01:35:16;;;;;;;2.85;2.53;;;13.60;99.90;;;;;;5074853;28;20130;-63
2023/07/11 01:37:43;;;;;;;3.83;2.33;;;13.60;99.90;;;;;;5076621;28;20044;-63
2023/07/11 01:40:10;;;;;;;1.90;1.80;;;13.60;99.90;;;;;;5062034;28;20564;-63
2023/07/11 01:42:40;;;;;;;1.75;1.65;;;13.60;99.90;;;;;;5072627;28;20044;-63
2023/07/11 01:45:09;;;;;;;3.50;1.77;;;13.60;99.90;;;;;;5074170;28;20041;-64
2023/07/11 01:47:36;;;;;;;2.17;2.05;;;13.50;99.90;;;;;;5072513;28;20052;-63
2023/07/11 01:50:03;;;;;;;2.20;2.00;;;13.50;99.90;;;;;;5074135;28;20117;-64
2023/07/11 01:52:30;;;;;;;2.00;1.90;;;13.50;99.90;;;;;;5079459;28;20060;-64
2023/07/11 01:54:58;;;;;;;4.43;2.30;;;13.40;99.90;;;;;;5077741;28;20075;-63
2023/07/11 01:57:25;;;;;;;3.15;2.17;;;13.40;99.90;;;;;;5075936;28;20053;-63
2023/07/11 01:59:52;;;;;;;2.10;1.90;;;13.40;99.90;;;;;;5054094;28;20056;-65
2023/07/11 02:02:18;;;;;;;2.28;2.08;;;13.30;99.90;;;;;;5072586;28;20117;-63
2023/07/11 02:04:45;;;;;;;2.63;2.22;;;13.30;99.90;;;;;;5075959;28;20044;-63
2023/07/11 02:07:13;;;;;;;2.30;2.10;;;13.30;99.90;;;;;;5081650;28;20052;-64
2023/07/11 02:09:45;;;;;;;2.92;2.65;;;13.30;99.90;;;;;;5078311;28;20056;-63
2023/07/11 02:12:13;;;;;;;2.60;2.38;;;13.30;99.90;;;;;;5082240;28;20113;-63
2023/07/11 02:14:40;;;;;;;2.55;2.33;;;13.30;99.90;;;;;;5079575;28;20052;-62
2023/07/11 02:17:08;;;;;;;3.22;2.92;;;13.30;99.90;;;;;;5081501;28;20032;-64
2023/07/11 02:19:36;;;;;;;3.22;2.53;;;13.20;99.90;;;;;;5061673;28;20083;-64
2023/07/11 02:22:03;;;;;;;4.40;2.70;;;13.20;99.90;;;;;;5080513;28;20040;-64
2023/07/11 02:24:30;;;;;;;2.30;2.20;;;13.20;99.90;;;;;;5081637;28;20040;-63
2023/07/11 02:26:57;;;;;;;3.17;2.50;;;13.20;99.90;;;;;;5079861;28;20462;-63
2023/07/11 02:29:24;;;;;;;4.82;2.70;;;13.20;99.90;;;;;;5078779;28;20097;-62
2023/07/11 02:31:51;;;;;;;3.17;2.88;;;13.20;99.90;;;;;;5081320;28;20123;-63
2023/07/11 02:34:19;;;;;;;3.70;2.05;;;13.20;99.90;;;;;;5079567;28;20378;-63
2023/07/11 02:36:46;;;;;;;4.35;2.92;;;13.20;99.90;;;;;;5080733;28;20773;-63
2023/07/11 02:39:13;;;;;;;2.67;1.85;;;13.20;99.90;;;;;;5079381;28;20090;-63
2023/07/11 02:41:39;;;;;;;8.85;1.98;;;13.20;99.90;;;;;;5081252;28;20197;-63
2023/07/11 02:44:07;;;;;;;2.70;2.25;;;13.30;99.90;;;;;;5078852;28;20041;-64
2023/07/11 02:46:35;;;;;;;2.88;2.25;;;13.30;99.90;;;;;;5075941;28;20102;-63
2023/07/11 02:49:02;;;;;;;2.50;2.30;;;13.40;99.90;;;;;;5080466;28;20517;-70
2023/07/11 02:51:29;;;;;;;2.28;2.10;;;13.40;99.90;;;;;;5082990;28;20530;-63
2023/07/11 02:53:56;;;;;;;4.97;2.85;;;13.50;99.90;;;;;;5078672;28;20044;-63
2023/07/11 02:56:23;;;;;;;2.40;2.08;;;13.50;99.90;;;;;;5075445;28;20117;-63
2023/07/11 02:58:51;;;;;;;2.30;2.10;;;13.60;99.90;;;;;;5076350;28;20123;-64
2023/07/11 03:01:18;;;;;;;3.20;2.45;;;13.60;99.90;;;;;;5076579;28;20036;-63
2023/07/11 03:03:45;;;;;;;3.10;2.45;;;13.60;99.90;;;;;;5076014;28;20037;-64
2023/07/11 03:06:12;;;;;;;2.40;2.20;;;13.70;99.90;;;;;;5081385;28;20036;-64
2023/07/11 03:08:39;;;;;;;2.58;2.35;;;13.70;99.90;;;;;;5077162;28;20453;-64
2023/07/11 03:11:06;;;;;;;4.05;2.47;;;13.70;99.90;;;;;;5076810;28;20090;-63
2023/07/11 03:13:33;;;;;;;2.40;2.20;;;13.80;99.90;;;;;;5081570;28;20044;-64
2023/07/11 03:16:02;;;;;;;2.38;2.17;;;13.80;99.90;;;;;;5081470;28;20093;-64
2023/07/11 03:18:31;;;;;;;2.78;2.58;;;13.90;99.90;;;;;;5082275;28;20469;-63
2023/07/11 03:21:00;;;;;;;4.97;3.13;;;14.00;99.90;;;;;;5084124;28;20036;-63
2023/07/11 03:23:28;;;;;;;3.08;2.65;;;14.00;99.90;;;;;;5078671;28;20101;-63
2023/07/11 03:25:55;;;;;;;3.50;3.20;;;14.10;99.90;;;;;;5078059;28;20444;-64
2023/07/11 03:28:22;;;;;;;3.03;2.72;;;14.20;99.90;;;;;;5082259;28;20147;-63
2023/07/11 03:30:51;;;;;;;2.50;2.30;;;14.30;99.90;;;;;;5076252;28;20044;-63
2023/07/11 03:33:18;;;;;;;2.88;2.67;;;14.30;99.90;;;;;;5078609;28;20128;-63
2023/07/11 03:35:49;;;;;;;3.33;3.03;;;14.40;99.90;;;;;;5074608;28;20048;-63
2023/07/11 03:38:17;;;;;;;2.60;2.40;;;14.50;99.90;;;;;;5078982;28;20075;-63
2023/07/11 03:40:44;;;;;;;3.67;2.88;;;14.60;99.90;;;;;;5073723;28;20040;-64
2023/07/11 03:43:11;;;;;;;2.28;2.08;;;14.70;99.90;;;;;;5075983;28;20520;-64
2023/07/11 03:45:41;;;;;;;4.18;3.10;;;14.80;99.90;;;;;;5076826;28;20040;-63
2023/07/11 03:48:08;;;;;;;;;;;15.00;99.90;;;;;;5077799;28;20044;-63
2023/07/11 03:50:35;;;;;;;3.38;2.17;;;15.00;99.90;;;;;;5079850;28;19943;-63
2023/07/11 03:53:02;;;;;;;5.70;2.80;;;15.10;99.90;;;;;;5076985;28;20036;-64
2023/07/11 03:55:29;;;;;;;3.38;2.85;;;15.30;99.90;;;;;;5077102;28;20075;-63
2023/07/11 03:57:56;;;;;;;4.38;2.60;;;15.40;99.90;;;;;;5077337;28;20124;-63
2023/07/11 04:00:23;;;;;;;3.95;2.35;;;15.50;99.90;;;;;;5078967;28;20501;-64
2023/07/11 04:02:50;;;;;;;3.78;2.65;;;15.50;99.90;;;;;;5073924;28;20033;-63
2023/07/11 04:05:17;;;;;;;3.60;3.33;;;15.60;99.90;;;;;;5070483;28;20153;-63
2023/07/11 04:07:44;;;;;;;2.92;2.08;;;15.70;99.90;;;;;;5078264;28;20056;-63
2023/07/11 04:10:12;;;;;;;2.72;2.53;;;15.80;99.90;;;;;;5081099;28;20071;-63
2023/07/11 04:12:39;;;;;;;3.83;2.55;;;15.90;99.90;;;;;;5077787;28;20040;-63
2023/07/11 04:15:07;;;;;;;2.25;2.05;;;16.00;99.90;;;;;;5079237;28;20453;-64
2023/07/11 04:17:34;;;;;;;2.63;1.98;;;16.10;99.90;;;;;;5074428;28;20125;-65
2023/07/11 04:20:01;;;;;;;7.03;2.13;;;16.20;99.90;;;;;;5077535;28;20473;-65
2023/07/11 04:22:29;;;;;;;6.88;2.55;;;16.30;99.90;;;;;;5073414;28;20044;-63
2023/07/11 04:24:56;;;;;;;3.88;2.00;;;16.40;99.90;;;;;;5076797;28;20048;-65
2023/07/11 04:27:25;;;;;;;7.82;2.63;;;16.50;99.90;;;;;;5075197;28;20072;-63
2023/07/11 04:29:52;;;;;;;2.63;2.35;;;16.70;99.90;;;;;;5076217;28;20048;-64
2023/07/11 04:32:19;;;;;;;4.88;2.38;;;16.70;99.90;;;;;;5077949;28;20135;-63
2023/07/11 04:34:46;;;;;;;2.65;2.17;;;16.80;99.90;;;;;;5084328;28;20122;-63
2023/07/11 04:37:13;;;;;;;2.42;2.25;;;17.00;99.90;;;;;;5075151;28;20043;-65
2023/07/11 04:39:40;;;;;;;2.15;2.05;;;17.10;99.90;;;;;;5079499;28;20109;-63
2023/07/11 04:42:07;;;;;;;3.08;2.22;;;17.20;99.90;;;;;;5057511;28;20478;-63
2023/07/11 04:44:34;;;;;;;2.60;1.88;;;17.30;99.90;;;;;;5080539;28;20048;-63
2023/07/11 04:47:01;;;;;;;3.17;2.20;;;17.40;99.90;;;;;;5076149;28;20055;-63
2023/07/11 04:49:28;;;;;;;2.40;2.03;;;17.50;99.90;;;;;;5075426;28;20055;-64
2023/07/11 04:51:55;;;;;;;4.47;3.85;;;17.60;99.90;;;;;;5052021;28;20040;-63
2023/07/11 04:54:22;;;;;;;5.47;1.83;;;17.70;99.90;;;;;;5077186;28;20040;-63
2023/07/11 04:56:57;;;;;;;2.08;1.95;;;17.70;99.90;;;;;;5074618;28;20501;-65
2023/07/11 04:59:24;;;;;;;4.13;1.75;;;17.80;99.90;;;;;;5072577;28;20036;-64
2023/07/11 05:01:52;;;;;;;2.10;1.88;;;17.90;99.90;;;;;;5072258;28;20337;-63
2023/07/11 05:04:19;;;;;;;2.88;1.70;;;17.90;99.90;;;;;;5075388;28;20054;-63
2023/07/11 05:06:47;;;;;;;6.43;2.17;;;18.00;99.90;;;;;;5074736;28;20785;-63
2023/07/11 05:09:17;;;;;;;2.28;2.00;;;18.10;99.90;;;;;;5076970;28;20087;-63
2023/07/11 05:11:44;;;;;;;5.03;1.50;;;18.10;99.90;;;;;;5078821;28;20052;-63
2023/07/11 05:14:11;;;;;;;3.97;1.83;;;18.20;99.90;;;;;;5074891;28;20044;-63
2023/07/11 05:16:38;;;;;;;4.43;2.88;;;18.20;99.90;;;;;;5072673;28;20135;-63
2023/07/11 05:19:05;;;;;;;5.18;1.83;;;18.30;99.90;;;;;;5076445;28;20040;-65
2023/07/11 05:21:32;;;;;;;10.15;2.72;;;18.30;99.90;;;;;;5077672;28;20051;-63
2023/07/11 05:24:01;;;;;;;3.05;2.38;;;18.40;99.90;;;;;;5076493;28;20036;-64
2023/07/11 05:26:29;;;;;;;3.78;2.40;;;18.40;99.90;;;;;;5077552;28;20134;-64
2023/07/11 05:28:56;;;;;;;5.35;2.10;;;18.50;99.90;;;;;;5077301;28;20040;-63
2023/07/11 05:31:24;;;;;;;6.60;1.75;;;18.50;99.90;;;;;;5074858;28;20156;-64
2023/07/11 05:33:53;;;;;;;3.83;1.73;;;18.60;99.90;;;;;;5074091;28;20147;-63
2023/07/11 05:38:54;;;;;;;3.50;2.00;;;18.80;99.90;;;;;;5076748;28;20040;-63
2023/07/11 05:41:21;;;;;;;3.75;1.80;;;18.80;99.90;;;;;;5073850;28;20406;-64
2023/07/11 05:43:48;;;;;;;2.60;2.40;;;18.80;99.90;;;;;;5077993;28;20048;-63
2023/07/11 05:46:15;;;;;;;1.80;1.70;;;18.80;99.90;;;;;;5076243;28;20162;-64
2023/07/11 05:48:42;;;;;;;2.33;1.48;;;18.70;99.90;;;;;;5078635;28;20047;-63
2023/07/11 05:51:12;;;;;;;1.90;1.70;;;18.70;99.90;;;;;;5073974;28;20072;-63
2023/07/11 05:53:39;;;;;;;5.07;1.60;;;18.70;99.90;;;;;;5072117;28;20055;-63
2023/07/11 05:56:06;;;;;;;1.77;1.65;;;18.70;99.90;;;;;;5073357;28;20425;-64
2023/07/11 05:58:35;;;;;;;2.35;2.15;;;18.70;99.90;;;;;;5072889;28;20048;-64
2023/07/11 06:01:05;;;;;;;2.90;2.65;;;18.70;99.90;;;;;;5077477;28;20044;-65
2023/07/11 06:03:32;;;;;;;2.95;1.85;;;18.70;99.90;;;;;;5078032;28;20036;-64
2023/07/11 06:06:05;;;;;;;2.92;1.38;;;18.80;99.90;;;;;;5074572;28;20037;-64
2023/07/11 06:08:32;;;;;;;3.67;1.58;;;18.80;99.90;;;;;;5079486;28;20459;-65
2023/07/11 06:11:03;;;;;;;2.47;1.65;;;18.80;99.90;;;;;;5073911;28;20105;-64
2023/07/11 06:13:31;;;;;;;3.70;1.88;;;18.80;99.90;;;;;;5075265;28;20089;-63
2023/07/11 06:16:00;;;;;;;3.25;1.88;;;18.80;99.90;;;;;;5076228;28;20105;-64
2023/07/11 06:18:27;;;;;;;1.63;1.52;;;18.70;99.90;;;;;;5071474;28;20479;-64
2023/07/11 06:20:54;;;;;;;3.05;2.50;;;18.70;99.90;;;;;;5071410;28;20554;-63
2023/07/11 06:23:21;;;;;;;3.25;2.95;;;18.70;99.90;;;;;;5075123;28;20072;-63
2023/07/11 06:25:48;;;;;;;1.60;1.50;;;18.70;99.90;;;;;;5074329;28;20041;-63
2023/07/11 06:28:15;;;;;;;2.85;1.88;;;18.70;99.90;;;;;;5074774;28;20091;-64
2023/07/11 06:30:43;;;;;;;1.70;1.60;;;18.70;99.90;;;;;;5076610;28;20050;-63
2023/07/11 06:33:11;;;;;;;2.55;1.77;;;18.70;99.90;;;;;;5073061;28;20052;-64
2023/07/11 06:35:41;;;;;;;2.17;1.77;;;18.70;99.90;;;;;;5076518;28;20051;-63
2023/07/11 06:38:08;;;;;;;1.73;1.63;;;18.80;99.90;;;;;;5074479;28;20478;-64
2023/07/11 06:40:35;;;;;;;3.10;2.00;;;18.90;99.90;;;;;;5078460;28;20039;-63
2023/07/11 06:43:05;;;;;;;2.35;1.92;;;19.00;99.90;;;;;;5075974;28;20072;-64
2023/07/11 06:45:32;;;;;;;2.22;1.77;;;19.10;99.90;;;;;;5080569;28;20055;-63
2023/07/11 06:47:59;;;;;;;3.92;1.63;;;19.10;99.90;;;;;;5071509;28;20493;-63
2023/07/11 06:50:26;;;;;;;4.57;2.40;;;19.20;99.90;;;;;;5075310;28;20514;-64
2023/07/11 06:52:53;;;;;;;1.83;1.40;;;19.20;99.90;;;;;;5075151;28;20056;-63
2023/07/11 06:55:20;;;;;;;3.03;1.50;;;19.30;99.90;;;;;;5057575;28;20061;-63
2023/07/11 06:57:47;;;;;;;2.03;1.55;;;19.40;99.90;;;;;;5076430;28;20054;-63
2023/07/11 07:00:15;;;;;;;2.10;1.58;;;19.40;99.90;;;;;;5078021;28;20097;-64
2023/07/11 07:02:42;;;;;;;4.13;1.80;;;19.60;99.90;;;;;;5075947;28;20449;-65
2023/07/11 07:05:09;;;;;;;2.35;2.25;;;19.60;99.90;;;;;;5083311;28;20062;-63
2023/07/11 07:07:35;;;;;;;6.90;1.98;;;19.70;99.90;;;;;;5074487;28;20048;-63
2023/07/11 07:10:03;;;;;;;2.35;1.52;;;19.80;99.90;;;;;;5083350;28;20493;-64
2023/07/11 07:12:30;;;;;;;1.50;1.40;;;19.90;99.90;;;;;;5075472;28;20394;-63
2023/07/11 07:14:56;;;;;;;2.03;1.60;;;20.00;99.90;;;;;;5081460;28;20093;-63
2023/07/11 07:17:23;;;;;;;1.63;1.25;;;20.00;99.90;;;;;;5075125;28;20047;-64
2023/07/11 07:19:51;;;;;;;3.45;2.15;;;20.10;99.90;;;;;;5077684;28;20140;-63
2023/07/11 07:22:18;;;;;;;1.67;1.58;;;20.20;99.90;;;;;;5077614;28;20048;-64
2023/07/11 07:24:45;;;;;;;1.63;1.45;;;20.20;99.90;;;;;;5076939;28;20101;-63
2023/07/11 07:27:11;;;;;;;3.00;1.58;;;20.20;99.90;;;;;;5073711;28;20125;-64
2023/07/11 07:29:55;;;;;;;1.50;1.25;;;20.10;99.90;;;;;;5078483;28;20036;-64
2023/07/11 07:32:22;;;;;;;1.60;1.50;;;20.30;99.90;;;;;;5075986;28;20123;-64
2023/07/11 07:34:49;;;;;;;2.63;1.88;;;20.40;99.90;;;;;;5076852;28;20126;-63
2023/07/11 07:37:16;;;;;;;4.03;1.92;;;20.50;99.90;;;;;;5073425;28;20075;-64
2023/07/11 07:39:43;;;;;;;2.33;1.73;;;20.60;99.90;;;;;;5078105;28;20052;-63
2023/07/11 07:42:10;;;;;;;3.22;1.80;;;20.50;99.90;;;;;;5077691;28;20121;-63
2023/07/11 07:44:36;;;;;;;2.15;1.58;;;20.70;99.90;;;;;;5073881;28;20044;-64
2023/07/11 07:47:03;;;;;;;4.07;2.15;;;20.80;99.90;;;;;;5079550;28;20135;-64
2023/07/11 07:49:30;;;;;;;1.95;1.58;;;20.80;99.90;;;;;;5077515;28;20071;-63
2023/07/11 07:52:15;;;;;;;3.45;1.60;;;20.90;99.90;;;;;;5078270;28;20051;-63
2023/07/11 07:54:42;;;;;;;1.98;1.88;;;21.00;99.90;;;;;;5076682;28;20109;-64
2023/07/11 07:57:09;;;;;;;2.78;1.65;;;21.00;99.90;;;;;;5078221;28;20089;-64
2023/07/11 07:59:36;;;;;;;1.95;1.73;;;21.00;99.90;;;;;;5073575;28;20071;-63
2023/07/11 08:02:03;;;;;;;2.47;1.20;;;21.10;99.90;;;;;;5075610;28;20098;-64
2023/07/11 08:04:30;;;;;;;1.55;1.45;;;21.20;99.90;;;;;;5076245;28;20557;-63
2023/07/11 08:06:57;;;;;;;1.55;1.35;;;21.30;99.90;;;;;;5077834;28;20417;-63
2023/07/11 08:09:25;;;;;;;3.13;2.15;;;21.50;99.90;;;;;;5076496;28;20052;-64
2023/07/11 08:11:52;;;;;;;3.60;1.75;;;21.50;99.90;;;;;;5079984;28;20079;-64
2023/07/11 08:14:19;;;;;;;1.50;1.40;;;21.50;99.90;;;;;;5077892;28;20097;-64
2023/07/11 08:16:46;;;;;;;1.65;1.38;;;21.50;99.90;;;;;;5079146;28;20048;-63
2023/07/11 08:19:13;;;;;;;1.88;1.35;;;21.50;99.90;;;;;;5073448;28;20051;-64
2023/07/11 08:21:39;;;;;;;1.50;1.40;;;21.50;99.90;;;;;;5077277;28;20074;-63
2023/07/11 08:24:06;;;;;;;2.08;1.17;;;21.60;99.90;;;;;;5075348;28;20033;-64
2023/07/11 08:26:34;;;;;;;1.63;1.38;;;21.70;99.90;;;;;;5074827;28;20229;-63
2023/07/11 08:29:01;;;;;;;1.17;1.02;;;21.60;98.80;;;;;;5080391;28;20135;-63
2023/07/11 08:31:42;;;;;;;2.95;1.20;;;21.50;98.00;;;;;;5075733;28;20044;-64
2023/07/11 08:34:09;;;;;;;2.30;1.30;;;21.60;98.40;;;;;;5071814;28;20109;-64
2023/07/11 08:36:39;;;;;;;1.85;1.67;;;21.70;98.00;;;;;;5076675;28;20124;-63
2023/07/11 08:39:06;;;;;;;3.72;1.77;;;21.70;96.50;;;;;;5076863;28;20067;-63
2023/07/11 08:41:40;;;;;;;1.60;1.48;;;21.50;95.70;;;;;;5078238;28;20039;-64
2023/07/11 08:44:16;;;;;;;3.35;1.95;;;21.50;96.00;;;;;;5075098;28;20040;-64
2023/07/11 08:46:52;;;;;;;3.25;1.58;;;21.60;97.20;;;;;;5077214;28;20044;-64
2023/07/11 08:49:28;;;;;;;2.10;1.83;;;21.50;97.20;;;;;;5077101;28;20044;-63
2023/07/11 08:51:58;;;;;;;2.90;1.55;;;21.60;97.10;;;;;;5074755;28;20378;-63
2023/07/11 08:54:57;;;;;;;2.08;1.55;;;21.60;97.30;;;;;;5077126;28;20529;-64
2023/07/11 08:57:29;;;;;;;1.90;1.23;;;21.60;96.70;;;;;;5072549;28;20487;-63
2023/07/11 09:00:08;;;;;;;2.90;1.80;;;21.70;95.90;;;;;;5075629;28;20040;-63
2023/07/11 09:02:55;;;;;;;1.80;1.50;;;21.80;95.90;;;;;;5075579;28;20077;-64
2023/07/11 09:05:25;;;;;;;2.85;2.65;;;21.90;96.10;;;;;;5077592;28;20413;-64
2023/07/11 09:07:53;;;;;;;2.28;2.08;;;22.10;96.40;;;;;;5073749;28;20056;-64
2023/07/11 09:10:38;;;;;;;2.25;1.20;;;22.30;96.00;;;;;;5072993;28;20400;-64
2023/07/11 09:13:21;;;;;;;1.75;1.50;;;22.60;94.70;;;;;;5078481;28;20450;-64
2023/07/11 09:16:00;;;;;;;2.55;1.05;;;22.80;94.20;;;;;;5073779;28;20056;-64
2023/07/11 09:18:53;;;;;;;3.85;1.45;;;22.90;94.90;;;;;;5076148;28;20040;-64
2023/07/11 09:21:26;;;;;;;2.17;1.17;;;22.90;93.70;;;;;;5074689;28;20166;-63
2023/07/11 09:24:01;;;;;;;2.22;1.58;;;22.90;94.10;;;;;;5072324;28;20530;-65
2023/07/11 09:26:49;;;;;;;1.85;1.60;;;23.00;94.60;;;;;;5074067;28;20098;-64
2023/07/11 09:29:18;;;;;;;1.60;1.40;;;23.10;94.70;;;;;;5077278;28;20048;-63
2023/07/11 09:31:56;;;;;;;3.28;2.03;;;23.10;95.10;;;;;;5069607;28;20044;-63
2023/07/11 09:34:36;;;;;;;2.67;1.48;;;23.20;95.20;;;;;;5073794;28;20048;-63
2023/07/11 09:37:27;;;;;;;2.83;1.37;;;23.10;94.10;;;;;;5071818;28;20036;-64
2023/07/11 09:40:01;;;;;;;1.40;1.20;;;23.00;94.50;;;;;;5079849;28;20288;-64
2023/07/11 09:42:44;;;;;;;1.95;1.48;;;23.20;94.20;;;;;;5076963;28;20473;-64
2023/07/11 09:45:16;;;;;;;3.03;1.90;;;23.40;95.00;;;;;;5077604;28;20060;-63
2023/07/11 09:47:52;;;;;;;1.75;1.38;;;23.50;95.00;;;;;;5076761;28;20048;-64
2023/07/11 09:50:58;;;;;;;1.40;1.30;;;23.60;94.00;;;;;;5076698;28;20508;-64
2023/07/11 09:53:45;;;;;;;1.48;1.08;;;23.70;93.10;;;;;;5077357;28;20036;-64
2023/07/11 09:56:16;;;;;;;3.13;2.38;;;23.60;96.70;;;;;;5072801;28;20047;-64
2023/07/11 09:58:51;;;;;;;1.67;1.58;;;23.60;99.90;;;;;;5076075;28;20058;-64
2023/07/11 10:01:31;;;;;;;2.35;1.98;;;23.10;99.90;;;;;;5076589;28;20464;-64
2023/07/11 10:04:00;;;;;;;2.97;2.70;;;22.80;99.90;;;;;;5083571;28;20040;-63
2023/07/11 10:06:27;;;;;;;2.53;2.30;;;22.60;99.90;;;;;;5072227;28;20044;-63
2023/07/11 10:09:25;;;;;;;2.80;1.92;;;22.50;99.90;;;;;;5074833;28;20059;-64
2023/07/11 10:12:03;;;;;;;3.53;3.20;;;22.10;99.90;;;;;;5074504;28;20044;-64
2023/07/11 10:14:35;;;;;;;2.67;2.22;;;21.60;99.90;;;;;;5076676;28;20152;-64
2023/07/11 10:17:18;;;;;;;2.47;1.80;;;21.50;99.90;;;;;;5070256;28;20588;-64
2023/07/11 10:19:50;;;;;;;3.65;2.15;;;21.50;99.90;;;;;;5079717;28;20048;-64
2023/07/11 10:22:22;;;;;;;3.92;2.47;;;21.40;99.90;;;;;;5069369;28;20089;-64
2023/07/11 10:24:50;;;;;;;4.65;3.33;;;21.10;99.90;;;;;;5078521;28;20557;-64
2023/07/11 10:27:26;;;;;;;2.95;2.75;;;21.10;99.90;;;;;;5074735;28;20430;-64
2023/07/11 10:29:56;;;;;;;4.45;3.70;;;21.00;99.90;;;;;;5076620;28;20121;-63
2023/07/11 10:32:39;;;;;;;;;;;20.70;99.90;;;;;;5078957;28;20056;-64
2023/07/11 10:35:14;;;;;;;2.10;2.00;;;20.70;99.90;;;;;;5077845;28;19924;-65
2023/07/11 10:37:55;;;;;;;2.67;2.40;;;20.70;99.90;;;;;;5077106;28;20079;-64
2023/07/11 10:40:27;;;;;;;8.15;2.00;;;20.40;99.90;;;;;;5072998;28;20052;-63
2023/07/11 10:43:21;;;;;;;4.22;2.20;;;20.30;99.90;;;;;;5081498;28;20101;-65
2023/07/11 10:45:51;;;;;;;2.72;2.30;;;20.30;99.90;;;;;;5075068;28;20084;-63
2023/07/11 10:48:32;;;;;;;2.72;1.85;;;20.40;99.90;;;;;;5078377;28;20075;-63
2023/07/11 10:51:04;;;;;;;2.65;2.45;;;20.70;99.90;;;;;;5079597;28;20086;-63
2023/07/11 10:53:40;;;;;;;2.20;1.90;;;20.80;99.90;;;;;;5077470;28;20047;-64
2023/07/11 10:56:09;;;;;;;5.43;2.42;;;20.50;99.90;;;;;;5083926;28;20043;-65
2023/07/11 10:58:36;;;;;;;5.88;2.20;;;20.30;99.90;;;;;;5081235;28;20040;-65
2023/07/11 11:01:11;;;;;;;2.60;2.30;;;20.40;99.90;;;;;;5078389;28;20075;-63
2023/07/11 11:03:45;;;;;;;4.45;2.83;;;20.40;99.90;;;;;;5078780;28;20705;-64
2023/07/11 11:06:21;;;;;;;2.88;2.15;;;20.30;99.90;;;;;;5079920;28;20036;-64
2023/07/11 11:09:13;;;;;;;2.38;2.17;;;20.50;99.90;;;;;;5080891;28;20511;-63
2023/07/11 11:11:48;;;;;;;2.72;2.22;;;20.60;99.90;;;;;;5083835;28;20048;-65
2023/07/11 11:14:39;;;;;;;3.10;2.53;;;20.70;99.90;;;;;;5076270;28;20044;-65
2023/07/11 11:17:19;;;;;;;2.28;2.05;;;20.50;99.90;;;;;;5076179;28;20055;-64
2023/07/11 11:20:12;;;;;;;3.50;2.20;;;20.40;99.90;;;;;;5083243;28;20039;-63
2023/07/11 11:23:09;;;;;;;3.28;2.15;;;20.40;99.90;;;;;;5079375;28;20044;-64
2023/07/11 11:26:02;;;;;;;4.25;2.60;;;20.40;99.90;;;;;;5078049;28;20086;-63
2023/07/11 11:28:40;;;;;;;2.42;2.22;;;20.40;99.90;;;;;;5075088;28;20521;-64
2023/07/11 11:31:07;;;;;;;3.97;1.88;;;20.80;99.90;;;;;;5076132;28;20040;-64
2023/07/11 11:33:49;;;;;;;2.33;2.13;;;21.00;99.90;;;;;;5085571;28;20040;-65
2023/07/11 11:36:40;;;;;;;3.53;2.00;;;20.70;99.90;;;;;;5076023;28;20426;-64
2023/07/11 11:39:17;;;;;;;3.38;2.47;;;20.70;99.90;;;;;;5078903;28;20029;-63
2023/07/11 11:41:50;;;;;;;3.30;1.90;;;20.90;99.90;;;;;;5080252;28;20063;-63
2023/07/11 11:44:39;;;;;;;2.38;1.92;;;21.00;99.90;;;;;;5078743;28;20067;-65
2023/07/11 11:47:09;;;;;;;3.15;2.33;;;21.10;99.90;;;;;;5078618;28;20045;-63
2023/07/11 11:49:57;;;;;;;4.72;2.22;;;20.70;99.90;;;;;;5078608;28;20063;-64
2023/07/11 11:52:31;;;;;;;3.60;2.38;;;21.00;99.90;;;;;;5070463;28;20454;-64
2023/07/11 11:55:51;;;;;;;3.15;1.85;;;21.00;99.90;;;;;;5076557;28;20536;-64
2023/07/11 11:58:34;;;;;;;3.50;3.20;;;20.90;99.90;;;;;;5013101;28;20229;-63
2023/07/11 12:01:01;;;;;;;2.88;2.28;;;20.90;99.90;;;;;;5072633;28;20521;-65
2023/07/11 12:03:44;;;;;;;2.25;1.98;;;21.20;99.90;;;;;;5079397;28;20427;-64
2023/07/11 12:06:34;;;;;;;5.20;1.88;;;21.10;99.90;;;;;;5074769;28;20485;-64
2023/07/11 12:09:16;;;;;;;2.65;1.83;;;21.40;99.90;;;;;;5078891;28;20051;-65
2023/07/11 12:11:45;;;;;;;3.75;2.05;;;21.40;99.90;;;;;;5078865;28;20439;-65
2023/07/11 12:14:25;;;;;;;3.22;2.10;;;21.40;99.90;;;;;;5078368;28;20086;-63
2023/07/11 12:16:53;;;;;;;2.53;1.85;;;21.50;99.90;;;;;;5073128;28;20083;-64
2023/07/11 12:19:38;;;;;;;4.63;2.53;;;21.30;99.90;;;;;;5076539;28;20466;-64
2023/07/11 12:22:07;;;;;;;5.55;1.98;;;21.40;99.90;;;;;;5075605;28;20040;-64
2023/07/11 12:24:34;;;;;;;8.32;2.53;;;21.10;99.90;;;;;;5073101;28;20528;-63
2023/07/11 12:27:30;;;;;;;;;;;21.10;99.90;;;;;;5075895;28;20102;-64
2023/07/11 12:30:00;;;;;;;3.75;1.98;;;21.30;99.90;;;;;;5075774;28;19924;-64
2023/07/11 12:32:33;;;;;;;5.20;2.22;;;21.10;99.90;;;;;;5075730;28;20081;-64
2023/07/11 12:35:03;;;;;;;3.67;2.40;;;20.90;99.90;;;;;;5075307;28;20048;-64
2023/07/11 12:37:55;;;;;;;5.07;2.30;;;20.60;99.90;;;;;;5064684;28;20241;-63
2023/07/11 12:40:30;;;;;;;3.88;2.22;;;20.30;99.90;;;;;;5076597;28;20048;-64
2023/07/11 12:43:00;;;;;;;2.95;2.10;;;20.30;99.90;;;;;;5077750;28;20040;-64
2023/07/11 12:45:35;;;;;;;3.33;2.28;;;20.30;99.90;;;;;;5075214;28;20032;-63
2023/07/11 12:48:22;;;;;;;3.08;2.30;;;20.50;99.90;;;;;;5075120;28;20051;-64
2023/07/11 12:50:52;;;;;;;4.65;2.20;;;20.60;99.90;;;;;;5071951;28;20056;-63
2023/07/11 12:53:19;;;;;;;3.10;2.23;;;20.90;99.90;;;;;;5077081;28;20040;-64
2023/07/11 12:55:51;;;;;;;5.50;2.47;;;21.20;99.90;;;;;;5076587;28;20498;-63
2023/07/11 12:58:24;;;;;;;3.10;1.83;;;21.50;99.90;;;;;;5073696;28;20044;-63
2023/07/11 13:00:53;;;;;;;3.05;1.60;;;21.60;99.90;;;;;;5072006;28;20036;-64
2023/07/11 13:03:31;;;;;;;1.90;1.80;;;21.60;99.90;;;;;;5074858;28;20103;-64
2023/07/11 13:06:03;;;;;;;3.20;1.67;;;21.30;99.90;;;;;;5072836;28;20050;-63
2023/07/11 13:08:49;;;;;;;1.90;1.80;;;21.40;99.90;;;;;;5072827;28;20837;-63
2023/07/11 13:11:24;;;;;;;5.22;2.40;;;21.60;99.90;;;;;;5074403;28;20091;-64